FDX734 KRDU-KEWR
Flight info
| Callsign | FDX734 |
|---|---|
| Flight time | 0h 43m |
| Altitude | 35000 |
| Route | OXFRD5 CARML QUART PHLBO4 |
| Aircraft | B77L/H-SDE1E2E3FGHIJ2J3J4J5M1RWXY/LB1D1 |
Departure
| Time | 2026-05-07 09:54 |
|---|---|
| Airport | Raleigh-Durham International Airport (KRDU) |
Arrival
| Time | 2026-05-07 10:37 |
|---|---|
| Airport | Newark Liberty International Airport (KEWR) |
| Time | Latitude | Longitude | Altitude | Speed | Heading |
|---|---|---|---|---|---|
| 2026-05-07 09:27 | 35.88808 | -78.77950 | 412 ft | 0 kts | 135° |
| 2026-05-07 09:47 | 35.88807 | -78.77950 | 412 ft | 1 kts | 135° |
| 2026-05-07 09:48 | 35.88798 | -78.77959 | 407 ft | 3 kts | 249° |
| 2026-05-07 09:48 | 35.88772 | -78.78086 | 408 ft | 27 kts | 246° |
| 2026-05-07 09:48 | 35.88734 | -78.78247 | 410 ft | 9 kts | 292° |
| 2026-05-07 09:48 | 35.88756 | -78.78250 | 410 ft | 6 kts | 15° |
| 2026-05-07 09:49 | 35.88833 | -78.78184 | 404 ft | 15 kts | 43° |
| 2026-05-07 09:49 | 35.88921 | -78.78164 | 410 ft | 13 kts | 12° |
| 2026-05-07 09:49 | 35.89010 | -78.78074 | 409 ft | 20 kts | 44° |
| 2026-05-07 09:49 | 35.89108 | -78.77954 | 411 ft | 20 kts | 45° |
| 2026-05-07 09:50 | 35.89204 | -78.77832 | 413 ft | 20 kts | 46° |
| 2026-05-07 09:50 | 35.89273 | -78.77755 | 410 ft | 9 kts | 24° |
| 2026-05-07 09:50 | 35.89332 | -78.77773 | 419 ft | 9 kts | 324° |
| 2026-05-07 09:50 | 35.89345 | -78.77832 | 411 ft | 7 kts | 256° |
| 2026-05-07 09:51 | 35.89318 | -78.77883 | 411 ft | 7 kts | 228° |
| 2026-05-07 09:51 | 35.89283 | -78.77927 | 409 ft | 7 kts | 228° |
| 2026-05-07 09:51 | 35.89273 | -78.77940 | 408 ft | 0 kts | 225° |
| 2026-05-07 09:51 | 35.89256 | -78.77965 | 408 ft | 6 kts | 229° |
| 2026-05-07 09:52 | 35.89245 | -78.77979 | 410 ft | 0 kts | 226° |
| 2026-05-07 09:52 | 35.89242 | -78.77983 | 408 ft | 3 kts | 225° |
| 2026-05-07 09:53 | 35.89141 | -78.78107 | 410 ft | 38 kts | 225° |
| 2026-05-07 09:53 | 35.88805 | -78.78520 | 408 ft | 106 kts | 225° |
| 2026-05-07 09:53 | 35.88108 | -78.79363 | 412 ft | 169 kts | 224° |
| 2026-05-07 09:53 | 35.87242 | -78.80428 | 948 ft | 182 kts | 225° |
| 2026-05-07 09:54 | 35.86525 | -78.81635 | 1905 ft | 164 kts | 251° |
| 2026-05-07 09:54 | 35.86585 | -78.82991 | 2819 ft | 167 kts | 286° |
| 2026-05-07 09:54 | 35.87449 | -78.84176 | 3126 ft | 212 kts | 320° |
| 2026-05-07 09:54 | 35.89027 | -78.84739 | 3315 ft | 263 kts | 351° |
| 2026-05-07 09:55 | 35.90864 | -78.84388 | 3960 ft | 281 kts | 9° |
| 2026-05-07 09:55 | 35.92735 | -78.83579 | 4693 ft | 292 kts | 14° |
| 2026-05-07 09:55 | 35.94654 | -78.82601 | 5458 ft | 304 kts | 18° |
| 2026-05-07 09:55 | 35.96569 | -78.81387 | 6272 ft | 314 kts | 23° |
| 2026-05-07 09:56 | 35.98454 | -78.80072 | 7261 ft | 310 kts | 24° |
| 2026-05-07 09:56 | 36.00332 | -78.78736 | 8151 ft | 314 kts | 24° |
| 2026-05-07 09:56 | 36.02248 | -78.77377 | 8948 ft | 319 kts | 24° |
| 2026-05-07 09:56 | 36.04165 | -78.76021 | 9937 ft | 316 kts | 24° |
| 2026-05-07 09:57 | 36.06085 | -78.74672 | 10735 ft | 321 kts | 24° |
| 2026-05-07 09:57 | 36.08060 | -78.73301 | 11144 ft | 343 kts | 24° |
| 2026-05-07 09:57 | 36.10230 | -78.71805 | 11377 ft | 371 kts | 24° |
| 2026-05-07 09:57 | 36.12527 | -78.70219 | 12006 ft | 384 kts | 25° |
| 2026-05-07 09:58 | 36.14887 | -78.68582 | 12897 ft | 392 kts | 25° |
| 2026-05-07 09:58 | 36.17277 | -78.66921 | 13855 ft | 396 kts | 25° |
| 2026-05-07 09:58 | 36.19695 | -78.65240 | 14742 ft | 401 kts | 24° |
| 2026-05-07 09:58 | 36.22146 | -78.63539 | 15620 ft | 406 kts | 24° |
| 2026-05-07 09:59 | 36.24626 | -78.61817 | 16462 ft | 412 kts | 24° |
| 2026-05-07 09:59 | 36.27112 | -78.60093 | 17272 ft | 418 kts | 23° |
| 2026-05-07 09:59 | 36.29667 | -78.58320 | 18098 ft | 424 kts | 23° |
| 2026-05-07 09:59 | 36.32258 | -78.56521 | 18808 ft | 430 kts | 23° |
| 2026-05-07 10:00 | 36.34888 | -78.54695 | 19498 ft | 436 kts | 22° |
| 2026-05-07 10:00 | 36.37557 | -78.52839 | 20182 ft | 443 kts | 22° |
| 2026-05-07 10:00 | 36.40261 | -78.50957 | 20873 ft | 448 kts | 22° |
| 2026-05-07 10:00 | 36.42997 | -78.49051 | 21559 ft | 454 kts | 22° |
| 2026-05-07 10:01 | 36.45766 | -78.47120 | 22223 ft | 459 kts | 23° |
| 2026-05-07 10:01 | 36.48529 | -78.45192 | 22861 ft | 465 kts | 23° |
| 2026-05-07 10:01 | 36.51380 | -78.43203 | 23358 ft | 475 kts | 23° |
| 2026-05-07 10:01 | 36.54269 | -78.41183 | 23974 ft | 478 kts | 23° |
| 2026-05-07 10:02 | 36.57174 | -78.39147 | 24597 ft | 481 kts | 22° |
| 2026-05-07 10:02 | 36.60107 | -78.37092 | 25141 ft | 487 kts | 22° |
| 2026-05-07 10:02 | 36.63072 | -78.35014 | 25667 ft | 493 kts | 22° |
| 2026-05-07 10:02 | 36.66076 | -78.32909 | 26179 ft | 499 kts | 22° |
| 2026-05-07 10:03 | 36.69116 | -78.30775 | 26693 ft | 504 kts | 21° |
| 2026-05-07 10:03 | 36.72149 | -78.28645 | 27204 ft | 510 kts | 21° |
| 2026-05-07 10:03 | 36.75632 | -78.26195 | 27836 ft | 515 kts | 21° |
| 2026-05-07 10:03 | 36.87776 | -78.17632 | 29829 ft | 533 kts | 20° |
| 2026-05-07 10:04 | 37.00510 | -78.07193 | 31434 ft | 562 kts | 28° |
| 2026-05-07 10:04 | 37.13122 | -77.95292 | 32833 ft | 575 kts | 27° |
| 2026-05-07 10:04 | 37.20821 | -77.88102 | 33620 ft | 580 kts | 27° |
| 2026-05-07 10:04 | 37.24067 | -77.85072 | 34012 ft | 580 kts | 27° |
| 2026-05-07 10:05 | 37.27300 | -77.82048 | 34400 ft | 579 kts | 27° |
| 2026-05-07 10:05 | 37.30522 | -77.79030 | 34824 ft | 578 kts | 27° |
| 2026-05-07 10:05 | 37.34017 | -77.75755 | 34931 ft | 580 kts | 27° |
| 2026-05-07 10:06 | 37.56806 | -77.54296 | 34904 ft | 578 kts | 27° |
| 2026-05-07 10:06 | 37.82541 | -77.29861 | 34967 ft | 579 kts | 27° |
| 2026-05-07 10:07 | 38.08247 | -77.05231 | 34969 ft | 579 kts | 27° |
| 2026-05-07 10:07 | 38.33684 | -76.80639 | 34960 ft | 579 kts | 27° |
| 2026-05-07 10:08 | 38.59331 | -76.55620 | 34948 ft | 580 kts | 27° |
| 2026-05-07 10:08 | 38.84869 | -76.30472 | 34954 ft | 578 kts | 27° |
| 2026-05-07 10:09 | 38.93623 | -76.21799 | 34961 ft | 579 kts | 27° |
| 2026-05-07 10:09 | 38.99934 | -76.15526 | 34904 ft | 573 kts | 27° |
| 2026-05-07 10:09 | 39.03059 | -76.12403 | 34604 ft | 564 kts | 27° |
| 2026-05-07 10:10 | 39.06144 | -76.09319 | 33963 ft | 563 kts | 27° |
| 2026-05-07 10:10 | 39.09246 | -76.06229 | 33201 ft | 562 kts | 27° |
| 2026-05-07 10:10 | 39.12313 | -76.03168 | 32763 ft | 555 kts | 27° |
| 2026-05-07 10:10 | 39.15340 | -76.00136 | 32434 ft | 546 kts | 27° |
| 2026-05-07 10:11 | 39.18307 | -75.97158 | 32162 ft | 536 kts | 27° |
| 2026-05-07 10:11 | 39.21225 | -75.94227 | 31843 ft | 528 kts | 27° |
| 2026-05-07 10:11 | 39.24102 | -75.91340 | 31458 ft | 522 kts | 27° |
| 2026-05-07 10:11 | 39.26922 | -75.88514 | 30970 ft | 519 kts | 27° |
| 2026-05-07 10:12 | 39.29769 | -75.85662 | 30448 ft | 518 kts | 27° |
| 2026-05-07 10:12 | 39.32608 | -75.82816 | 29944 ft | 516 kts | 28° |
| 2026-05-07 10:12 | 39.35430 | -75.79978 | 29451 ft | 512 kts | 28° |
| 2026-05-07 10:12 | 39.38224 | -75.77160 | 29008 ft | 507 kts | 28° |
| 2026-05-07 10:13 | 39.40988 | -75.74368 | 28565 ft | 502 kts | 28° |
| 2026-05-07 10:13 | 39.43726 | -75.71599 | 28120 ft | 498 kts | 28° |
| 2026-05-07 10:13 | 39.46445 | -75.68848 | 27707 ft | 493 kts | 28° |
| 2026-05-07 10:13 | 39.49102 | -75.66157 | 27273 ft | 490 kts | 29° |
| 2026-05-07 10:14 | 39.51771 | -75.63453 | 26836 ft | 486 kts | 29° |
| 2026-05-07 10:14 | 39.54428 | -75.60759 | 26401 ft | 483 kts | 29° |
| 2026-05-07 10:14 | 39.57063 | -75.58084 | 26007 ft | 479 kts | 29° |
| 2026-05-07 10:14 | 39.59677 | -75.55427 | 25621 ft | 475 kts | 29° |
| 2026-05-07 10:15 | 39.62264 | -75.52795 | 25224 ft | 472 kts | 30° |
| 2026-05-07 10:15 | 39.64836 | -75.50176 | 24834 ft | 468 kts | 30° |
| 2026-05-07 10:15 | 39.67390 | -75.47573 | 24463 ft | 465 kts | 30° |
| 2026-05-07 10:15 | 39.69924 | -75.44987 | 24089 ft | 462 kts | 30° |
| 2026-05-07 10:16 | 39.72405 | -75.42454 | 23718 ft | 459 kts | 30° |
| 2026-05-07 10:16 | 39.74906 | -75.39898 | 23307 ft | 456 kts | 31° |
| 2026-05-07 10:16 | 39.77390 | -75.37356 | 22890 ft | 453 kts | 31° |
| 2026-05-07 10:16 | 39.79853 | -75.34833 | 22470 ft | 450 kts | 31° |
| 2026-05-07 10:17 | 39.82301 | -75.32323 | 22032 ft | 447 kts | 31° |
| 2026-05-07 10:17 | 39.84735 | -75.29827 | 21602 ft | 444 kts | 31° |
| 2026-05-07 10:17 | 39.87152 | -75.27344 | 21213 ft | 441 kts | 31° |
| 2026-05-07 10:17 | 39.89553 | -75.24876 | 20797 ft | 438 kts | 32° |
| 2026-05-07 10:18 | 39.91909 | -75.22452 | 20394 ft | 436 kts | 32° |
| 2026-05-07 10:18 | 39.94278 | -75.20012 | 19986 ft | 433 kts | 32° |
| 2026-05-07 10:18 | 39.96639 | -75.17578 | 19620 ft | 430 kts | 32° |
| 2026-05-07 10:18 | 39.98975 | -75.15166 | 19285 ft | 426 kts | 32° |
| 2026-05-07 10:19 | 40.01283 | -75.12781 | 18897 ft | 423 kts | 32° |
| 2026-05-07 10:19 | 40.03584 | -75.10403 | 18499 ft | 421 kts | 32° |
| 2026-05-07 10:19 | 40.05874 | -75.08035 | 18091 ft | 418 kts | 33° |
| 2026-05-07 10:19 | 40.08142 | -75.05687 | 17677 ft | 414 kts | 33° |
| 2026-05-07 10:20 | 40.10358 | -75.03389 | 17286 ft | 411 kts | 33° |
| 2026-05-07 10:20 | 40.12589 | -75.01075 | 16866 ft | 408 kts | 33° |
| 2026-05-07 10:20 | 40.14801 | -74.98778 | 16457 ft | 404 kts | 33° |
| 2026-05-07 10:20 | 40.16992 | -74.96502 | 16065 ft | 401 kts | 33° |
| 2026-05-07 10:21 | 40.19169 | -74.94238 | 15658 ft | 398 kts | 33° |
| 2026-05-07 10:21 | 40.21331 | -74.91988 | 15245 ft | 395 kts | 34° |
| 2026-05-07 10:21 | 40.23473 | -74.89757 | 14850 ft | 392 kts | 34° |
| 2026-05-07 10:21 | 40.25602 | -74.87538 | 14464 ft | 390 kts | 34° |
| 2026-05-07 10:22 | 40.27685 | -74.85364 | 14079 ft | 387 kts | 34° |
| 2026-05-07 10:22 | 40.29782 | -74.83175 | 13698 ft | 384 kts | 34° |
| 2026-05-07 10:22 | 40.31865 | -74.80998 | 13271 ft | 382 kts | 34° |
| 2026-05-07 10:22 | 40.33935 | -74.78833 | 12834 ft | 379 kts | 35° |
| 2026-05-07 10:23 | 40.35990 | -74.76682 | 12423 ft | 376 kts | 35° |
| 2026-05-07 10:23 | 40.38023 | -74.74552 | 12001 ft | 374 kts | 35° |
| 2026-05-07 10:23 | 40.40048 | -74.72429 | 11585 ft | 371 kts | 35° |
| 2026-05-07 10:23 | 40.42062 | -74.70315 | 11191 ft | 369 kts | 36° |
| 2026-05-07 10:24 | 40.44057 | -74.68220 | 10795 ft | 366 kts | 36° |
| 2026-05-07 10:24 | 40.46008 | -74.66170 | 10367 ft | 364 kts | 36° |
| 2026-05-07 10:24 | 40.47978 | -74.64097 | 10085 ft | 360 kts | 36° |
| 2026-05-07 10:24 | 40.49930 | -74.62043 | 10021 ft | 360 kts | 36° |
| 2026-05-07 10:25 | 40.51887 | -74.59983 | 10005 ft | 362 kts | 36° |
| 2026-05-07 10:25 | 40.53853 | -74.57911 | 10002 ft | 362 kts | 36° |
| 2026-05-07 10:25 | 40.55813 | -74.55843 | 9944 ft | 363 kts | 36° |
| 2026-05-07 10:25 | 40.57792 | -74.53754 | 9606 ft | 365 kts | 36° |
| 2026-05-07 10:26 | 40.59761 | -74.51672 | 9446 ft | 359 kts | 36° |
| 2026-05-07 10:26 | 40.61712 | -74.49607 | 9432 ft | 365 kts | 36° |
| 2026-05-07 10:26 | 40.63691 | -74.47515 | 9432 ft | 367 kts | 36° |
| 2026-05-07 10:26 | 40.65631 | -74.45456 | 9022 ft | 351 kts | 36° |
| 2026-05-07 10:27 | 40.67500 | -74.43471 | 8616 ft | 342 kts | 36° |
| 2026-05-07 10:27 | 40.69322 | -74.41535 | 8497 ft | 329 kts | 36° |
| 2026-05-07 10:27 | 40.71067 | -74.39681 | 8357 ft | 317 kts | 36° |
| 2026-05-07 10:27 | 40.72764 | -74.37879 | 8147 ft | 309 kts | 36° |
| 2026-05-07 10:28 | 40.74424 | -74.36115 | 7860 ft | 304 kts | 35° |
| 2026-05-07 10:28 | 40.76062 | -74.34375 | 7522 ft | 301 kts | 35° |
| 2026-05-07 10:28 | 40.77685 | -74.32649 | 7193 ft | 298 kts | 35° |
| 2026-05-07 10:28 | 40.79268 | -74.30964 | 6876 ft | 295 kts | 35° |
| 2026-05-07 10:29 | 40.80855 | -74.29274 | 6539 ft | 292 kts | 35° |
| 2026-05-07 10:29 | 40.82429 | -74.27595 | 6242 ft | 289 kts | 35° |
| 2026-05-07 10:29 | 40.83986 | -74.25935 | 5908 ft | 287 kts | 35° |
| 2026-05-07 10:30 | 40.87031 | -74.22683 | 5348 ft | 275 kts | 35° |
| 2026-05-07 10:30 | 40.88494 | -74.21118 | 5099 ft | 268 kts | 35° |
| 2026-05-07 10:30 | 40.89934 | -74.19571 | 4883 ft | 266 kts | 38° |
| 2026-05-07 10:30 | 40.91027 | -74.17651 | 4610 ft | 269 kts | 69° |
| 2026-05-07 10:31 | 40.91256 | -74.15242 | 4350 ft | 263 kts | 101° |
| 2026-05-07 10:31 | 40.90605 | -74.13077 | 4025 ft | 249 kts | 131° |
| 2026-05-07 10:31 | 40.89433 | -74.11552 | 3775 ft | 234 kts | 152° |
| 2026-05-07 10:31 | 40.88084 | -74.10483 | 3671 ft | 222 kts | 157° |
| 2026-05-07 10:32 | 40.86742 | -74.09504 | 3567 ft | 219 kts | 157° |
| 2026-05-07 10:32 | 40.85410 | -74.08530 | 3470 ft | 218 kts | 157° |
| 2026-05-07 10:32 | 40.84079 | -74.07566 | 3372 ft | 216 kts | 162° |
| 2026-05-07 10:32 | 40.82673 | -74.07185 | 3159 ft | 202 kts | 186° |
| 2026-05-07 10:33 | 40.81306 | -74.07171 | 2987 ft | 196 kts | 185° |
| 2026-05-07 10:33 | 40.79955 | -74.07126 | 2721 ft | 193 kts | 185° |
| 2026-05-07 10:33 | 40.78620 | -74.07081 | 2466 ft | 192 kts | 185° |
| 2026-05-07 10:33 | 40.77297 | -74.07035 | 2228 ft | 185 kts | 185° |
| 2026-05-07 10:34 | 40.76059 | -74.07020 | 1967 ft | 168 kts | 194° |
| 2026-05-07 10:34 | 40.75054 | -74.07572 | 1832 ft | 156 kts | 215° |
| 2026-05-07 10:34 | 40.74116 | -74.08208 | 1668 ft | 140 kts | 212° |
| 2026-05-07 10:34 | 40.73311 | -74.08732 | 1628 ft | 127 kts | 212° |
| 2026-05-07 10:35 | 40.72508 | -74.09263 | 1607 ft | 130 kts | 213° |
| 2026-05-07 10:35 | 40.71699 | -74.09801 | 1613 ft | 131 kts | 212° |
| 2026-05-07 10:35 | 40.70893 | -74.10354 | 1566 ft | 128 kts | 221° |
| 2026-05-07 10:35 | 40.70459 | -74.11322 | 1170 ft | 126 kts | 250° |
| 2026-05-07 10:36 | 40.70088 | -74.12400 | 794 ft | 137 kts | 245° |
| 2026-05-07 10:36 | 40.69935 | -74.13614 | 488 ft | 133 kts | 282° |
| 2026-05-07 10:36 | 40.70056 | -74.14850 | 274 ft | 144 kts | 276° |
| 2026-05-07 10:36 | 40.70145 | -74.16182 | 42 ft | 143 kts | 279° |
| 2026-05-07 10:37 | 40.70232 | -74.17320 | 29 ft | 80 kts | 275° |
| 2026-05-07 10:37 | 40.70225 | -74.17697 | 29 ft | 38 kts | 255° |
| 2026-05-07 10:37 | 40.70157 | -74.17896 | 31 ft | 18 kts | 230° |
| 2026-05-07 10:37 | 40.70039 | -74.17918 | 28 ft | 17 kts | 175° |
| 2026-05-07 10:38 | 40.69989 | -74.17834 | 27 ft | 11 kts | 95° |
| 2026-05-07 10:38 | 40.69979 | -74.17671 | 30 ft | 24 kts | 95° |
| 2026-05-07 10:38 | 40.69961 | -74.17447 | 28 ft | 25 kts | 102° |
| 2026-05-07 10:38 | 40.69881 | -74.17248 | 26 ft | 25 kts | 130° |
| 2026-05-07 10:39 | 40.69754 | -74.17099 | 29 ft | 25 kts | 145° |
| 2026-05-07 10:39 | 40.69593 | -74.17011 | 25 ft | 25 kts | 162° |
| 2026-05-07 10:39 | 40.69422 | -74.16976 | 27 ft | 25 kts | 179° |
| 2026-05-07 10:39 | 40.69251 | -74.17018 | 23 ft | 25 kts | 201° |
| 2026-05-07 10:40 | 40.69095 | -74.17118 | 23 ft | 25 kts | 206° |
| 2026-05-07 10:40 | 40.68938 | -74.17216 | 29 ft | 25 kts | 205° |
| 2026-05-07 10:40 | 40.68780 | -74.17314 | 27 ft | 25 kts | 207° |
| 2026-05-07 10:40 | 40.68625 | -74.17416 | 30 ft | 25 kts | 206° |
| 2026-05-07 10:41 | 40.68471 | -74.17517 | 27 ft | 25 kts | 206° |
| 2026-05-07 10:41 | 40.68314 | -74.17616 | 26 ft | 25 kts | 204° |
| 2026-05-07 10:41 | 40.68156 | -74.17713 | 26 ft | 25 kts | 205° |
| 2026-05-07 10:41 | 40.67999 | -74.17812 | 24 ft | 25 kts | 206° |
| 2026-05-07 10:42 | 40.67847 | -74.17918 | 30 ft | 23 kts | 228° |
| 2026-05-07 10:42 | 40.67801 | -74.18062 | 32 ft | 16 kts | 205° |
| 2026-05-07 10:42 | 40.67705 | -74.18128 | 27 ft | 12 kts | 217° |
| 2026-05-07 10:42 | 40.67701 | -74.18219 | 26 ft | 11 kts | 295° |
| 2026-05-07 10:43 | 40.67733 | -74.18311 | 32 ft | 11 kts | 295° |
| 2026-05-07 10:43 | 40.67721 | -74.18364 | 27 ft | 7 kts | 211° |
| 2026-05-07 10:43 | 40.67687 | -74.18386 | 29 ft | 0 kts | 205° |